TUP9682 UEEE-UUWW
Flight info
| Callsign | TUP9682 |
|---|---|
| Flight time | N/A |
| Altitude | 34000 |
| Route | K0826F340 NIBES W19 PLR M130 OSVOD T816 UHT T791 KTL T187 NAZOL T791 KTL T187 ROMTA |
| Aircraft | B752/M-SDE2E3FGHIJ3J4J7RWXY/LB1 |
Departure
| Time | 2026-05-05 13:46 |
|---|---|
| Airport | Platon Oyunsky Yakutsk International Airport (UEEE) |
Arrival
| Time | N/A |
|---|---|
| Airport | Vnukovo International Airport (UUWW) |
| Time | Latitude | Longitude | Altitude | Speed | Heading |
|---|---|---|---|---|---|
| 2026-05-05 12:38 | 62.09621 | 129.76186 | 337 ft | 0 kts | 300° |
| 2026-05-05 13:37 | 62.09618 | 129.76198 | 336 ft | 2 kts | 300° |
| 2026-05-05 13:37 | 62.09611 | 129.76222 | 336 ft | 0 kts | 300° |
| 2026-05-05 13:37 | 62.09607 | 129.76239 | 336 ft | 1 kts | 298° |
| 2026-05-05 13:37 | 62.09601 | 129.76279 | 336 ft | 3 kts | 270° |
| 2026-05-05 13:38 | 62.09607 | 129.76317 | 336 ft | 2 kts | 224° |
| 2026-05-05 13:38 | 62.09613 | 129.76326 | 336 ft | 0 kts | 202° |
| 2026-05-05 13:41 | 62.09612 | 129.76325 | 336 ft | 0 kts | 204° |
| 2026-05-05 13:42 | 62.09596 | 129.76298 | 336 ft | 7 kts | 217° |
| 2026-05-05 13:42 | 62.09522 | 129.76198 | 336 ft | 15 kts | 212° |
| 2026-05-05 13:42 | 62.09433 | 129.76108 | 336 ft | 14 kts | 199° |
| 2026-05-05 13:42 | 62.09313 | 129.75970 | 336 ft | 23 kts | 211° |
| 2026-05-05 13:43 | 62.09177 | 129.75806 | 336 ft | 21 kts | 210° |
| 2026-05-05 13:43 | 62.09057 | 129.75658 | 336 ft | 18 kts | 210° |
| 2026-05-05 13:43 | 62.08952 | 129.75531 | 336 ft | 16 kts | 209° |
| 2026-05-05 13:43 | 62.08862 | 129.75421 | 337 ft | 14 kts | 210° |
| 2026-05-05 13:44 | 62.08785 | 129.75331 | 337 ft | 11 kts | 201° |
| 2026-05-05 13:44 | 62.08734 | 129.75388 | 336 ft | 9 kts | 123° |
| 2026-05-05 13:44 | 62.08693 | 129.75540 | 337 ft | 12 kts | 121° |
| 2026-05-05 13:44 | 62.08652 | 129.75685 | 336 ft | 12 kts | 121° |
| 2026-05-05 13:45 | 62.08582 | 129.75906 | 336 ft | 20 kts | 126° |
| 2026-05-05 13:45 | 62.08512 | 129.76120 | 336 ft | 11 kts | 112° |
| 2026-05-05 13:45 | 62.08532 | 129.76216 | 336 ft | 0 kts | 39° |
| 2026-05-05 13:45 | 62.08538 | 129.76228 | 336 ft | 5 kts | 38° |
| 2026-05-05 13:46 | 62.08717 | 129.76518 | 337 ft | 66 kts | 36° |
| 2026-05-05 13:46 | 62.09266 | 129.77396 | 337 ft | 131 kts | 37° |
| 2026-05-05 13:46 | 62.10151 | 129.78824 | 480 ft | 176 kts | 32° |
| 2026-05-05 13:46 | 62.11145 | 129.80423 | 1186 ft | 184 kts | 31° |
| 2026-05-05 13:47 | 62.12130 | 129.81876 | 1980 ft | 168 kts | 24° |
| 2026-05-05 13:47 | 62.13117 | 129.83298 | 2280 ft | 180 kts | 30° |
| 2026-05-05 13:47 | 62.14115 | 129.85004 | 2759 ft | 187 kts | 33° |
| 2026-05-05 13:47 | 62.15138 | 129.86731 | 3275 ft | 192 kts | 31° |
| 2026-05-05 13:48 | 62.16257 | 129.88542 | 3531 ft | 214 kts | 32° |
| 2026-05-05 13:48 | 62.17490 | 129.90547 | 3910 ft | 230 kts | 33° |
| 2026-05-05 13:48 | 62.18811 | 129.92674 | 4296 ft | 246 kts | 30° |
| 2026-05-05 13:48 | 62.20394 | 129.93993 | 4724 ft | 252 kts | 0° |
| 2026-05-05 13:49 | 62.22083 | 129.93335 | 5411 ft | 252 kts | 331° |
| 2026-05-05 13:49 | 62.23401 | 129.90935 | 6037 ft | 257 kts | 308° |
| 2026-05-05 13:49 | 62.24484 | 129.87868 | 6789 ft | 260 kts | 308° |
| 2026-05-05 13:49 | 62.25617 | 129.84767 | 7437 ft | 264 kts | 308° |
| 2026-05-05 13:50 | 62.26736 | 129.81686 | 8094 ft | 266 kts | 308° |
| 2026-05-05 13:50 | 62.27886 | 129.78516 | 8777 ft | 269 kts | 308° |
| 2026-05-05 13:50 | 62.29027 | 129.75363 | 9470 ft | 271 kts | 308° |
| 2026-05-05 13:50 | 62.30181 | 129.72168 | 10041 ft | 275 kts | 307° |
| 2026-05-05 13:51 | 62.31393 | 129.68810 | 10333 ft | 293 kts | 307° |
| 2026-05-05 13:51 | 62.32681 | 129.65233 | 10546 ft | 309 kts | 307° |
| 2026-05-05 13:51 | 62.33997 | 129.61575 | 11182 ft | 312 kts | 307° |
| 2026-05-05 13:51 | 62.35341 | 129.57829 | 11775 ft | 316 kts | 307° |
| 2026-05-05 13:52 | 62.36675 | 129.54109 | 12392 ft | 319 kts | 307° |
| 2026-05-05 13:52 | 62.38040 | 129.50295 | 12984 ft | 322 kts | 307° |
| 2026-05-05 13:52 | 62.39401 | 129.46486 | 13562 ft | 325 kts | 307° |
| 2026-05-05 13:52 | 62.40780 | 129.42621 | 14155 ft | 327 kts | 307° |
| 2026-05-05 13:53 | 62.42177 | 129.38696 | 14721 ft | 330 kts | 308° |
| 2026-05-05 13:53 | 62.43559 | 129.34807 | 15284 ft | 332 kts | 307° |
| 2026-05-05 13:53 | 62.44983 | 129.30792 | 15817 ft | 335 kts | 307° |
| 2026-05-05 13:53 | 62.46402 | 129.26785 | 16348 ft | 338 kts | 307° |
| 2026-05-05 13:54 | 62.47833 | 129.22740 | 16851 ft | 341 kts | 307° |
| 2026-05-05 13:54 | 62.49280 | 129.18642 | 17358 ft | 343 kts | 307° |
| 2026-05-05 13:54 | 62.50738 | 129.14504 | 17843 ft | 346 kts | 308° |
| 2026-05-05 13:54 | 62.52182 | 129.10394 | 18339 ft | 348 kts | 308° |
| 2026-05-05 13:55 | 62.53650 | 129.06213 | 18795 ft | 350 kts | 308° |
| 2026-05-05 13:55 | 62.55130 | 129.01990 | 19264 ft | 352 kts | 308° |
| 2026-05-05 13:55 | 62.56618 | 128.97739 | 19675 ft | 355 kts | 308° |
| 2026-05-05 13:55 | 62.58112 | 128.93454 | 20110 ft | 357 kts | 308° |
| 2026-05-05 13:56 | 62.59611 | 128.89153 | 20502 ft | 360 kts | 309° |
| 2026-05-05 13:56 | 62.61113 | 128.84834 | 20932 ft | 362 kts | 309° |
| 2026-05-05 13:56 | 62.62636 | 128.80447 | 21320 ft | 365 kts | 309° |
| 2026-05-05 13:56 | 62.64164 | 128.76035 | 21733 ft | 366 kts | 309° |
| 2026-05-05 13:57 | 62.65683 | 128.71643 | 22098 ft | 369 kts | 309° |
| 2026-05-05 13:57 | 62.67233 | 128.67152 | 22484 ft | 370 kts | 309° |
| 2026-05-05 13:57 | 62.68753 | 128.62738 | 22830 ft | 373 kts | 310° |
| 2026-05-05 13:57 | 62.70322 | 128.58173 | 23209 ft | 374 kts | 310° |
| 2026-05-05 13:58 | 62.71884 | 128.53622 | 23534 ft | 377 kts | 310° |
| 2026-05-05 13:58 | 62.73470 | 128.48988 | 23883 ft | 379 kts | 310° |
| 2026-05-05 13:58 | 62.75042 | 128.44388 | 24202 ft | 381 kts | 310° |
| 2026-05-05 13:58 | 62.76616 | 128.39771 | 24530 ft | 383 kts | 311° |
| 2026-05-05 13:59 | 62.79808 | 128.30382 | 25168 ft | 387 kts | 310° |
| 2026-05-05 13:59 | 62.81404 | 128.25673 | 25510 ft | 388 kts | 310° |
| 2026-05-05 14:00 | 62.84621 | 128.16150 | 26136 ft | 391 kts | 310° |
| 2026-05-05 14:00 | 62.86233 | 128.11366 | 26410 ft | 394 kts | 310° |
| 2026-05-05 14:00 | 62.87865 | 128.06508 | 26729 ft | 395 kts | 310° |
| 2026-05-05 14:00 | 62.89484 | 128.01683 | 26993 ft | 398 kts | 310° |
| 2026-05-05 14:01 | 62.91129 | 127.96765 | 27297 ft | 399 kts | 310° |
| 2026-05-05 14:01 | 62.92757 | 127.91886 | 27606 ft | 400 kts | 310° |
| 2026-05-05 14:01 | 62.94405 | 127.86942 | 27873 ft | 402 kts | 310° |
| 2026-05-05 14:01 | 62.96038 | 127.82031 | 28136 ft | 404 kts | 310° |
| 2026-05-05 14:02 | 62.97688 | 127.77055 | 28419 ft | 405 kts | 310° |
| 2026-05-05 14:02 | 62.99355 | 127.72020 | 28697 ft | 407 kts | 310° |
| 2026-05-05 14:02 | 63.01011 | 127.67005 | 28933 ft | 409 kts | 310° |
| 2026-05-05 14:02 | 63.02687 | 127.61919 | 29179 ft | 410 kts | 310° |
| 2026-05-05 14:03 | 63.04361 | 127.56826 | 29446 ft | 411 kts | 310° |
| 2026-05-05 14:03 | 63.06023 | 127.51763 | 29689 ft | 413 kts | 310° |
| 2026-05-05 14:03 | 63.07706 | 127.46620 | 29935 ft | 414 kts | 310° |
| 2026-05-05 14:03 | 63.09397 | 127.41442 | 30172 ft | 415 kts | 310° |
| 2026-05-05 14:04 | 63.11076 | 127.36289 | 30375 ft | 417 kts | 310° |
| 2026-05-05 14:04 | 63.12754 | 127.31126 | 30647 ft | 417 kts | 309° |
| 2026-05-05 14:04 | 63.14433 | 127.25951 | 30835 ft | 420 kts | 309° |
| 2026-05-05 14:04 | 63.16143 | 127.20668 | 31089 ft | 420 kts | 309° |
| 2026-05-05 14:05 | 63.17846 | 127.15392 | 31241 ft | 423 kts | 309° |
| 2026-05-05 14:05 | 63.19558 | 127.10076 | 31426 ft | 424 kts | 309° |
| 2026-05-05 14:05 | 63.21260 | 127.04780 | 31615 ft | 424 kts | 309° |
| 2026-05-05 14:05 | 63.22963 | 126.99470 | 31778 ft | 424 kts | 309° |
| 2026-05-05 14:06 | 63.24677 | 126.94110 | 31901 ft | 425 kts | 309° |
| 2026-05-05 14:06 | 63.26367 | 126.88814 | 32079 ft | 424 kts | 309° |
| 2026-05-05 14:06 | 63.28085 | 126.83418 | 32225 ft | 425 kts | 309° |
| 2026-05-05 14:06 | 63.29769 | 126.78117 | 32372 ft | 425 kts | 309° |
| 2026-05-05 14:07 | 63.31488 | 126.72691 | 32518 ft | 425 kts | 308° |
| 2026-05-05 14:07 | 63.33186 | 126.67320 | 32687 ft | 424 kts | 308° |
| 2026-05-05 14:07 | 63.34880 | 126.61948 | 32815 ft | 425 kts | 308° |
| 2026-05-05 14:07 | 63.36568 | 126.56583 | 32959 ft | 425 kts | 308° |
| 2026-05-05 14:08 | 63.38266 | 126.51170 | 33081 ft | 425 kts | 308° |
| 2026-05-05 14:08 | 63.39938 | 126.45832 | 33227 ft | 425 kts | 308° |
| 2026-05-05 14:08 | 63.41631 | 126.40410 | 33359 ft | 425 kts | 308° |
| 2026-05-05 14:08 | 63.43303 | 126.35043 | 33478 ft | 425 kts | 308° |
| 2026-05-05 14:09 | 63.46708 | 126.24079 | 33710 ft | 426 kts | 307° |
| 2026-05-05 14:09 | 63.48382 | 126.18665 | 33812 ft | 421 kts | 307° |
| 2026-05-05 14:09 | 63.50025 | 126.13341 | 33830 ft | 421 kts | 307° |
| 2026-05-05 14:10 | 63.53358 | 126.02504 | 33836 ft | 424 kts | 307° |
| 2026-05-05 14:10 | 63.56666 | 125.91693 | 33839 ft | 423 kts | 307° |
| 2026-05-05 14:11 | 63.59978 | 125.80821 | 33842 ft | 422 kts | 307° |
| 2026-05-05 14:11 | 63.63266 | 125.69973 | 33843 ft | 421 kts | 307° |
| 2026-05-05 14:12 | 63.66549 | 125.59092 | 33850 ft | 421 kts | 307° |
| 2026-05-05 14:12 | 63.69826 | 125.48177 | 33853 ft | 420 kts | 307° |
| 2026-05-05 14:13 | 63.73082 | 125.37279 | 33857 ft | 420 kts | 307° |
| 2026-05-05 14:13 | 63.76318 | 125.26399 | 33862 ft | 420 kts | 306° |
| 2026-05-05 14:14 | 63.79562 | 125.15437 | 33857 ft | 420 kts | 306° |
| 2026-05-05 14:14 | 63.82793 | 125.04465 | 33856 ft | 418 kts | 306° |
| 2026-05-05 14:15 | 63.86002 | 124.93511 | 33871 ft | 418 kts | 306° |
| 2026-05-05 14:15 | 63.89203 | 124.82536 | 33878 ft | 417 kts | 306° |
| 2026-05-05 14:16 | 63.92372 | 124.71618 | 33868 ft | 416 kts | 306° |
| 2026-05-05 14:16 | 63.95568 | 124.60553 | 33866 ft | 417 kts | 306° |
| 2026-05-05 14:17 | 63.98739 | 124.49518 | 33874 ft | 417 kts | 306° |
| 2026-05-05 14:17 | 64.01894 | 124.38486 | 33871 ft | 417 kts | 306° |
| 2026-05-05 14:18 | 64.05029 | 124.27473 | 33870 ft | 417 kts | 304° |
| 2026-05-05 14:18 | 64.08173 | 124.16367 | 33877 ft | 416 kts | 304° |
| 2026-05-05 14:19 | 64.11309 | 124.05240 | 33875 ft | 416 kts | 304° |
| 2026-05-05 14:19 | 64.14440 | 123.94071 | 33866 ft | 417 kts | 304° |
| 2026-05-05 14:20 | 64.17542 | 123.82954 | 33872 ft | 417 kts | 304° |
| 2026-05-05 14:20 | 64.20646 | 123.71770 | 33879 ft | 416 kts | 304° |
| 2026-05-05 14:21 | 64.23750 | 123.60534 | 33870 ft | 416 kts | 304° |
| 2026-05-05 14:21 | 64.26825 | 123.49348 | 33876 ft | 415 kts | 304° |
| 2026-05-05 14:22 | 64.29876 | 123.38189 | 33865 ft | 414 kts | 304° |
| 2026-05-05 14:22 | 64.32941 | 123.26921 | 33873 ft | 415 kts | 304° |
| 2026-05-05 14:23 | 64.35998 | 123.15634 | 33878 ft | 415 kts | 304° |
| 2026-05-05 14:23 | 64.39042 | 123.04332 | 33875 ft | 415 kts | 304° |
| 2026-05-05 14:24 | 64.42082 | 122.92988 | 33864 ft | 415 kts | 304° |
| 2026-05-05 14:24 | 64.45100 | 122.81667 | 33865 ft | 415 kts | 304° |
| 2026-05-05 14:25 | 64.48105 | 122.70342 | 33868 ft | 415 kts | 304° |
| 2026-05-05 14:25 | 64.51114 | 122.58941 | 33867 ft | 414 kts | 304° |
| 2026-05-05 14:26 | 64.54095 | 122.47585 | 33864 ft | 415 kts | 303° |
| 2026-05-05 14:26 | 64.57079 | 122.36163 | 33863 ft | 415 kts | 304° |
| 2026-05-05 14:27 | 64.60066 | 122.24670 | 33860 ft | 415 kts | 303° |
| 2026-05-05 14:27 | 64.63034 | 122.13192 | 33866 ft | 414 kts | 303° |
| 2026-05-05 14:28 | 64.65986 | 122.01715 | 33867 ft | 414 kts | 303° |
| 2026-05-05 14:28 | 64.68945 | 121.90149 | 33864 ft | 414 kts | 303° |
| 2026-05-05 14:29 | 64.71875 | 121.78637 | 33860 ft | 414 kts | 303° |
| 2026-05-05 14:29 | 64.74790 | 121.67126 | 33863 ft | 414 kts | 303° |
| 2026-05-05 14:30 | 64.77723 | 121.55481 | 33850 ft | 414 kts | 303° |
| 2026-05-05 14:30 | 64.80613 | 121.43947 | 33857 ft | 414 kts | 303° |
| 2026-05-05 14:31 | 64.83518 | 121.32295 | 33850 ft | 414 kts | 302° |
| 2026-05-05 14:31 | 64.86404 | 121.20651 | 33861 ft | 414 kts | 302° |
| 2026-05-05 14:32 | 64.89294 | 121.08931 | 33842 ft | 414 kts | 302° |
| 2026-05-05 14:32 | 64.91935 | 120.98171 | 33849 ft | 415 kts | 302° |
| 2026-05-05 14:33 | 64.94816 | 120.86368 | 33845 ft | 414 kts | 302° |
| 2026-05-05 14:33 | 64.97668 | 120.74622 | 33837 ft | 413 kts | 302° |
| 2026-05-05 14:34 | 65.00452 | 120.63094 | 33839 ft | 414 kts | 302° |
| 2026-05-05 14:34 | 65.03291 | 120.51275 | 33836 ft | 415 kts | 302° |
| 2026-05-05 14:35 | 65.06112 | 120.39465 | 33835 ft | 414 kts | 302° |
| 2026-05-05 14:35 | 65.08935 | 120.27583 | 33835 ft | 415 kts | 302° |
| 2026-05-05 14:36 | 65.11758 | 120.15634 | 33835 ft | 414 kts | 302° |
| 2026-05-05 14:36 | 65.14547 | 120.03770 | 33841 ft | 412 kts | 302° |
| 2026-05-05 14:37 | 65.17320 | 119.91908 | 33836 ft | 413 kts | 301° |
| 2026-05-05 14:37 | 65.20100 | 119.79947 | 33839 ft | 413 kts | 301° |
| 2026-05-05 14:38 | 65.22859 | 119.68014 | 33836 ft | 413 kts | 302° |
| 2026-05-05 14:38 | 65.25620 | 119.56005 | 33834 ft | 413 kts | 302° |
| 2026-05-05 14:39 | 65.28365 | 119.43999 | 33829 ft | 413 kts | 302° |
| 2026-05-05 14:39 | 65.31106 | 119.31944 | 33821 ft | 412 kts | 301° |
| 2026-05-05 14:40 | 65.33826 | 119.19912 | 33813 ft | 413 kts | 301° |
| 2026-05-05 14:40 | 65.36539 | 119.07848 | 33813 ft | 412 kts | 301° |
| 2026-05-05 14:41 | 65.39237 | 118.95777 | 33810 ft | 411 kts | 301° |
| 2026-05-05 14:41 | 65.41906 | 118.83773 | 33816 ft | 411 kts | 301° |
| 2026-05-05 14:42 | 65.44591 | 118.71625 | 33808 ft | 410 kts | 301° |
| 2026-05-05 14:42 | 65.47248 | 118.59543 | 33808 ft | 411 kts | 301° |
| 2026-05-05 14:43 | 65.49894 | 118.47435 | 33794 ft | 405 kts | 301° |
| 2026-05-05 14:43 | 65.52490 | 118.35493 | 33797 ft | 403 kts | 301° |
| 2026-05-05 14:44 | 65.55092 | 118.23455 | 33800 ft | 406 kts | 300° |
| 2026-05-05 14:44 | 65.57671 | 118.11453 | 33792 ft | 404 kts | 300° |
| 2026-05-05 14:45 | 65.60242 | 117.99423 | 33792 ft | 403 kts | 301° |
| 2026-05-05 14:45 | 65.62795 | 117.87407 | 33788 ft | 403 kts | 300° |
| 2026-05-05 14:46 | 65.65334 | 117.75391 | 33790 ft | 403 kts | 300° |
| 2026-05-05 14:46 | 65.67873 | 117.63304 | 33792 ft | 403 kts | 300° |
| 2026-05-05 14:47 | 65.70409 | 117.51161 | 33794 ft | 403 kts | 300° |
| 2026-05-05 14:47 | 65.72932 | 117.39012 | 33792 ft | 403 kts | 301° |
| 2026-05-05 14:48 | 65.75451 | 117.26815 | 33792 ft | 403 kts | 300° |
| 2026-05-05 14:48 | 65.77939 | 117.14695 | 33790 ft | 402 kts | 300° |
| 2026-05-05 14:49 | 65.80427 | 117.02504 | 33787 ft | 402 kts | 300° |
| 2026-05-05 14:49 | 65.82895 | 116.90344 | 33791 ft | 402 kts | 300° |
| 2026-05-05 14:50 | 65.85359 | 116.78123 | 33780 ft | 402 kts | 300° |
| 2026-05-05 14:50 | 65.87810 | 116.65904 | 33776 ft | 400 kts | 300° |
| 2026-05-05 14:51 | 65.90243 | 116.53702 | 33776 ft | 401 kts | 300° |
| 2026-05-05 14:51 | 65.92668 | 116.41464 | 33775 ft | 401 kts | 300° |
| 2026-05-05 14:52 | 65.95081 | 116.29213 | 33772 ft | 400 kts | 299° |
| 2026-05-05 14:52 | 65.97501 | 116.16863 | 33763 ft | 402 kts | 299° |
| 2026-05-05 14:53 | 65.99905 | 116.04511 | 33764 ft | 400 kts | 298° |
| 2026-05-05 14:53 | 66.02274 | 115.92272 | 33758 ft | 400 kts | 298° |
| 2026-05-05 14:54 | 66.04649 | 115.79924 | 33761 ft | 399 kts | 298° |
| 2026-05-05 14:54 | 66.07015 | 115.67551 | 33761 ft | 399 kts | 298° |
| 2026-05-05 14:55 | 66.09371 | 115.55156 | 33760 ft | 400 kts | 298° |
| 2026-05-05 14:55 | 66.11704 | 115.42806 | 33769 ft | 400 kts | 298° |
| 2026-05-05 14:56 | 66.14031 | 115.30409 | 33760 ft | 399 kts | 297° |
| 2026-05-05 14:56 | 66.16363 | 115.17917 | 33765 ft | 400 kts | 298° |
| 2026-05-05 14:57 | 66.18676 | 115.05445 | 33752 ft | 400 kts | 297° |
| 2026-05-05 14:57 | 66.20994 | 114.92871 | 33749 ft | 400 kts | 297° |
| 2026-05-05 14:58 | 66.23289 | 114.80337 | 33747 ft | 400 kts | 297° |
| 2026-05-05 14:58 | 66.25567 | 114.67827 | 33750 ft | 399 kts | 298° |
| 2026-05-05 14:59 | 66.27845 | 114.55235 | 33747 ft | 399 kts | 297° |
| 2026-05-05 14:59 | 66.30096 | 114.42715 | 33749 ft | 399 kts | 297° |
| 2026-05-05 15:00 | 66.31960 | 114.32278 | 33763 ft | 399 kts | 297° |
| 2026-05-05 15:00 | 66.34596 | 114.17444 | 33775 ft | 400 kts | 297° |
| 2026-05-05 15:01 | 66.36826 | 114.04797 | 33769 ft | 400 kts | 297° |
| 2026-05-05 15:01 | 66.39040 | 113.92168 | 33765 ft | 400 kts | 297° |
| 2026-05-05 15:02 | 66.41255 | 113.79445 | 33771 ft | 400 kts | 297° |
| 2026-05-05 15:02 | 66.43449 | 113.66766 | 33773 ft | 399 kts | 296° |
| 2026-05-05 15:03 | 66.45632 | 113.54066 | 33764 ft | 399 kts | 296° |
| 2026-05-05 15:03 | 66.47803 | 113.41358 | 33764 ft | 399 kts | 296° |
| 2026-05-05 15:04 | 66.49966 | 113.28606 | 33760 ft | 399 kts | 295° |
| 2026-05-05 15:04 | 66.52123 | 113.15815 | 33754 ft | 398 kts | 295° |
| 2026-05-05 15:05 | 66.55328 | 112.96650 | 33759 ft | 398 kts | 295° |
| 2026-05-05 15:06 | 66.57446 | 112.83875 | 33768 ft | 398 kts | 295° |
| 2026-05-05 15:06 | 66.59554 | 112.71075 | 33775 ft | 398 kts | 295° |
| 2026-05-05 15:07 | 66.61665 | 112.58181 | 33754 ft | 397 kts | 295° |
| 2026-05-05 15:07 | 66.63751 | 112.45342 | 33750 ft | 399 kts | 295° |
| 2026-05-05 15:08 | 66.65838 | 112.32419 | 33751 ft | 399 kts | 294° |
| 2026-05-05 15:08 | 66.67911 | 112.19485 | 33755 ft | 398 kts | 294° |
| 2026-05-05 15:09 | 66.69967 | 112.06582 | 33748 ft | 397 kts | 294° |
| 2026-05-05 15:09 | 66.72008 | 111.93677 | 33746 ft | 397 kts | 294° |
| 2026-05-05 15:10 | 66.74046 | 111.80708 | 33748 ft | 397 kts | 294° |
| 2026-05-05 15:10 | 66.76070 | 111.67728 | 33747 ft | 397 kts | 294° |
| 2026-05-05 15:11 | 66.78076 | 111.54787 | 33743 ft | 397 kts | 294° |
| 2026-05-05 15:11 | 66.80084 | 111.41738 | 33740 ft | 398 kts | 294° |
| 2026-05-05 15:12 | 66.82069 | 111.28744 | 33734 ft | 399 kts | 293° |
| 2026-05-05 15:12 | 66.84064 | 111.15607 | 33729 ft | 399 kts | 293° |
| 2026-05-05 15:13 | 66.86047 | 111.02436 | 33736 ft | 398 kts | 293° |
| 2026-05-05 15:13 | 66.88013 | 110.89298 | 33739 ft | 399 kts | 293° |
| 2026-05-05 15:14 | 66.89963 | 110.76166 | 33741 ft | 398 kts | 293° |
| 2026-05-05 15:14 | 66.91909 | 110.62967 | 33735 ft | 397 kts | 293° |
| 2026-05-05 15:15 | 66.93838 | 110.49793 | 33727 ft | 397 kts | 293° |
| 2026-05-05 15:15 | 66.95753 | 110.36613 | 33726 ft | 397 kts | 292° |
| 2026-05-05 15:16 | 66.97665 | 110.23361 | 33727 ft | 397 kts | 292° |
| 2026-05-05 15:16 | 66.99558 | 110.10154 | 33742 ft | 398 kts | 292° |
| 2026-05-05 15:17 | 67.01449 | 109.96851 | 33757 ft | 398 kts | 291° |
| 2026-05-05 15:17 | 67.03317 | 109.83607 | 33746 ft | 397 kts | 291° |
| 2026-05-05 15:18 | 67.05184 | 109.70278 | 33736 ft | 397 kts | 291° |
| 2026-05-05 15:18 | 67.07026 | 109.57029 | 33740 ft | 398 kts | 291° |
| 2026-05-05 15:19 | 67.08864 | 109.43710 | 33735 ft | 396 kts | 291° |
| 2026-05-05 15:19 | 67.10683 | 109.30421 | 33740 ft | 397 kts | 290° |
| 2026-05-05 15:20 | 67.12503 | 109.17032 | 33725 ft | 397 kts | 290° |
| 2026-05-05 15:20 | 67.14296 | 109.03735 | 33718 ft | 396 kts | 290° |
| 2026-05-05 15:21 | 67.16092 | 108.90316 | 33724 ft | 396 kts | 290° |
| 2026-05-05 15:21 | 67.17872 | 108.76914 | 33722 ft | 396 kts | 290° |
| 2026-05-05 15:22 | 67.19634 | 108.63541 | 33715 ft | 396 kts | 290° |
| 2026-05-05 15:22 | 67.21388 | 108.50118 | 33709 ft | 397 kts | 290° |
| 2026-05-05 15:23 | 67.23138 | 108.36628 | 33714 ft | 398 kts | 290° |
| 2026-05-05 15:23 | 67.24884 | 108.23058 | 33719 ft | 397 kts | 289° |
| 2026-05-05 15:24 | 67.26601 | 108.09612 | 33717 ft | 398 kts | 289° |
| 2026-05-05 15:24 | 67.28326 | 107.95985 | 33707 ft | 396 kts | 289° |
| 2026-05-05 15:25 | 67.30019 | 107.82506 | 33704 ft | 397 kts | 289° |
| 2026-05-05 15:25 | 67.31709 | 107.68945 | 33700 ft | 397 kts | 289° |
| 2026-05-05 15:26 | 67.33393 | 107.55314 | 33699 ft | 396 kts | 289° |
| 2026-05-05 15:26 | 67.35061 | 107.41705 | 33689 ft | 396 kts | 289° |
| 2026-05-05 15:27 | 67.36715 | 107.28095 | 33697 ft | 397 kts | 288° |
| 2026-05-05 15:27 | 67.38355 | 107.14487 | 33677 ft | 397 kts | 288° |
| 2026-05-05 15:28 | 67.39992 | 107.00791 | 33680 ft | 397 kts | 288° |
| 2026-05-05 15:28 | 67.41654 | 106.87141 | 33680 ft | 396 kts | 291° |
| 2026-05-05 15:29 | 67.43759 | 106.73861 | 33666 ft | 397 kts | 292° |
| 2026-05-05 15:29 | 67.45897 | 106.60693 | 33671 ft | 397 kts | 293° |
| 2026-05-05 15:30 | 67.48060 | 106.47439 | 33665 ft | 398 kts | 293° |
| 2026-05-05 15:30 | 67.50212 | 106.34215 | 33668 ft | 397 kts | 292° |
| 2026-05-05 15:31 | 67.52357 | 106.20973 | 33675 ft | 397 kts | 292° |
| 2026-05-05 15:31 | 67.54506 | 106.07619 | 33658 ft | 398 kts | 292° |
| 2026-05-05 15:32 | 67.56628 | 105.94349 | 33654 ft | 397 kts | 292° |
| 2026-05-05 15:32 | 67.58742 | 105.81029 | 33656 ft | 397 kts | 292° |
| 2026-05-05 15:33 | 67.60855 | 105.67628 | 33645 ft | 397 kts | 291° |
| 2026-05-05 15:33 | 67.62933 | 105.54351 | 33637 ft | 396 kts | 291° |
| 2026-05-05 15:34 | 67.65003 | 105.41039 | 33637 ft | 396 kts | 291° |
| 2026-05-05 15:34 | 67.67081 | 105.27584 | 33637 ft | 396 kts | 290° |
| 2026-05-05 15:35 | 67.69131 | 105.14210 | 33628 ft | 396 kts | 290° |
| 2026-05-05 15:35 | 67.71173 | 105.00790 | 33619 ft | 397 kts | 290° |
| 2026-05-05 15:36 | 67.73213 | 104.87293 | 33607 ft | 397 kts | 290° |
| 2026-05-05 15:36 | 67.75235 | 104.73815 | 33601 ft | 396 kts | 290° |
| 2026-05-05 15:37 | 67.77247 | 104.60308 | 33596 ft | 397 kts | 290° |
| 2026-05-05 15:37 | 67.79253 | 104.46736 | 33599 ft | 397 kts | 290° |
| 2026-05-05 15:38 | 67.81244 | 104.33181 | 33604 ft | 396 kts | 289° |
| 2026-05-05 15:38 | 67.83220 | 104.19616 | 33616 ft | 397 kts | 289° |
| 2026-05-05 15:39 | 67.85189 | 104.06004 | 33608 ft | 396 kts | 289° |
| 2026-05-05 15:39 | 67.87135 | 103.92448 | 33602 ft | 395 kts | 289° |
| 2026-05-05 15:40 | 67.89076 | 103.78825 | 33585 ft | 395 kts | 289° |
| 2026-05-05 15:40 | 67.90997 | 103.65247 | 33576 ft | 395 kts | 288° |
| 2026-05-05 15:41 | 67.92929 | 103.51480 | 33582 ft | 395 kts | 288° |
| 2026-05-05 15:41 | 67.94823 | 103.37882 | 33582 ft | 396 kts | 288° |
| 2026-05-05 15:42 | 67.96762 | 103.24157 | 33596 ft | 395 kts | 288° |
| 2026-05-05 15:42 | 67.98682 | 103.10513 | 33589 ft | 396 kts | 288° |
| 2026-05-05 15:43 | 68.00607 | 102.96733 | 33574 ft | 396 kts | 288° |
| 2026-05-05 15:43 | 68.02506 | 102.83021 | 33568 ft | 396 kts | 288° |
| 2026-05-05 15:44 | 68.04418 | 102.69118 | 33559 ft | 397 kts | 287° |
| 2026-05-05 15:44 | 68.06297 | 102.55346 | 33571 ft | 396 kts | 287° |
| 2026-05-05 15:45 | 68.08173 | 102.41499 | 33568 ft | 396 kts | 287° |
| 2026-05-05 15:45 | 68.10007 | 102.27840 | 33564 ft | 395 kts | 286° |
| 2026-05-05 15:46 | 68.11867 | 102.13882 | 33548 ft | 395 kts | 286° |
| 2026-05-05 15:46 | 68.13708 | 101.99967 | 33548 ft | 395 kts | 286° |
| 2026-05-05 15:47 | 68.15535 | 101.86039 | 33550 ft | 396 kts | 286° |
| 2026-05-05 15:47 | 68.17342 | 101.72155 | 33530 ft | 395 kts | 286° |
| 2026-05-05 15:48 | 68.19145 | 101.58184 | 33522 ft | 396 kts | 286° |
| 2026-05-05 15:48 | 68.20930 | 101.44250 | 33516 ft | 395 kts | 285° |
| 2026-05-05 15:49 | 68.22712 | 101.30215 | 33507 ft | 396 kts | 285° |
| 2026-05-05 15:49 | 68.24463 | 101.16213 | 33516 ft | 394 kts | 284° |
| 2026-05-05 15:50 | 68.26140 | 101.02173 | 33517 ft | 394 kts | 284° |
| 2026-05-05 15:50 | 68.27814 | 100.88062 | 33508 ft | 394 kts | 284° |
| 2026-05-05 15:51 | 68.29459 | 100.74069 | 33504 ft | 395 kts | 284° |
| 2026-05-05 15:51 | 68.31116 | 100.59849 | 33487 ft | 396 kts | 284° |
| 2026-05-05 15:52 | 68.32748 | 100.45725 | 33469 ft | 396 kts | 284° |
| 2026-05-05 15:52 | 68.34381 | 100.31468 | 33467 ft | 398 kts | 283° |
| 2026-05-05 15:53 | 68.35998 | 100.17226 | 33462 ft | 396 kts | 283° |
| 2026-05-05 15:53 | 68.37598 | 100.03011 | 33458 ft | 398 kts | 283° |
| 2026-05-05 15:54 | 68.39204 | 99.88602 | 33446 ft | 399 kts | 283° |
| 2026-05-05 15:54 | 68.40796 | 99.74198 | 33438 ft | 398 kts | 283° |
| 2026-05-05 15:55 | 68.42368 | 99.59839 | 33424 ft | 399 kts | 283° |
| 2026-05-05 15:55 | 68.43938 | 99.45371 | 33426 ft | 400 kts | 283° |
| 2026-05-05 15:56 | 68.45493 | 99.30892 | 33426 ft | 401 kts | 282° |
| 2026-05-05 15:56 | 68.47032 | 99.16434 | 33424 ft | 401 kts | 282° |
| 2026-05-05 15:57 | 68.48581 | 99.01746 | 33420 ft | 403 kts | 282° |
| 2026-05-05 15:57 | 68.50110 | 98.87099 | 33410 ft | 403 kts | 282° |
| 2026-05-05 15:58 | 68.51623 | 98.72464 | 33423 ft | 403 kts | 282° |
| 2026-05-05 15:58 | 68.53134 | 98.57792 | 33393 ft | 404 kts | 282° |
| 2026-05-05 15:59 | 68.54677 | 98.42990 | 33375 ft | 405 kts | 282° |
| 2026-05-05 15:59 | 68.56194 | 98.28277 | 33390 ft | 404 kts | 281° |
| 2026-05-05 16:00 | 68.57697 | 98.13551 | 33372 ft | 404 kts | 281° |
| 2026-05-05 16:00 | 68.59184 | 97.98840 | 33401 ft | 404 kts | 281° |
| 2026-05-05 16:01 | 68.60674 | 97.83941 | 33410 ft | 406 kts | 281° |
| 2026-05-05 16:01 | 68.62154 | 97.69013 | 33422 ft | 406 kts | 281° |
| 2026-05-05 16:02 | 68.63616 | 97.54085 | 33411 ft | 406 kts | 281° |
| 2026-05-05 16:02 | 68.65064 | 97.39169 | 33396 ft | 405 kts | 281° |
| 2026-05-05 16:03 | 68.66495 | 97.24264 | 33400 ft | 405 kts | 280° |
| 2026-05-05 16:03 | 68.67913 | 97.09331 | 33379 ft | 406 kts | 280° |
| 2026-05-05 16:04 | 68.69320 | 96.94366 | 33364 ft | 406 kts | 280° |
| 2026-05-05 16:04 | 68.70727 | 96.79243 | 33348 ft | 408 kts | 280° |
| 2026-05-05 16:05 | 68.72118 | 96.64120 | 33383 ft | 408 kts | 280° |
| 2026-05-05 16:05 | 68.73485 | 96.49097 | 33363 ft | 407 kts | 280° |
| 2026-05-05 16:06 | 68.74850 | 96.33914 | 33394 ft | 408 kts | 279° |
| 2026-05-05 16:06 | 68.76203 | 96.18718 | 33423 ft | 408 kts | 279° |
| 2026-05-05 16:07 | 68.77532 | 96.03614 | 33358 ft | 409 kts | 279° |
| 2026-05-05 16:07 | 68.78856 | 95.88393 | 33333 ft | 409 kts | 279° |
| 2026-05-05 16:08 | 68.80173 | 95.73067 | 33331 ft | 411 kts | 279° |
| 2026-05-05 16:08 | 68.81484 | 95.57656 | 33339 ft | 410 kts | 279° |
| 2026-05-05 16:09 | 68.82770 | 95.42333 | 33324 ft | 411 kts | 279° |
| 2026-05-05 16:09 | 68.84039 | 95.27029 | 33325 ft | 412 kts | 279° |
| 2026-05-05 16:10 | 68.85303 | 95.11626 | 33328 ft | 412 kts | 279° |
| 2026-05-05 16:10 | 68.86549 | 94.96206 | 33355 ft | 412 kts | 279° |
| 2026-05-05 16:11 | 68.87778 | 94.80700 | 33357 ft | 413 kts | 279° |
| 2026-05-05 16:12 | 68.90193 | 94.49643 | 33380 ft | 415 kts | 279° |
| 2026-05-05 16:13 | 68.93146 | 94.10552 | 33354 ft | 417 kts | 278° |
| 2026-05-05 16:13 | 68.94312 | 93.94769 | 33319 ft | 417 kts | 278° |
| 2026-05-05 16:14 | 68.96596 | 93.63145 | 33331 ft | 418 kts | 278° |
| 2026-05-05 16:15 | 68.98820 | 93.31532 | 33321 ft | 418 kts | 277° |
| 2026-05-05 16:16 | 69.00992 | 92.99733 | 33350 ft | 417 kts | 277° |
| 2026-05-05 16:17 | 69.02576 | 92.75911 | 33326 ft | 419 kts | 278° |
| 2026-05-05 16:18 | 69.04141 | 92.51874 | 33317 ft | 420 kts | 278° |
| 2026-05-05 16:19 | 69.05663 | 92.27937 | 33329 ft | 420 kts | 277° |
| 2026-05-05 16:19 | 69.07164 | 92.03764 | 33330 ft | 423 kts | 277° |
| 2026-05-05 16:20 | 69.09120 | 91.71358 | 33371 ft | 421 kts | 277° |
| 2026-05-05 16:22 | 69.11465 | 91.31021 | 33416 ft | 420 kts | 276° |
| 2026-05-05 16:23 | 69.13275 | 90.98632 | 33447 ft | 419 kts | 276° |
| 2026-05-05 16:23 | 69.14589 | 90.74388 | 33440 ft | 420 kts | 276° |
| 2026-05-05 16:24 | 69.15438 | 90.58344 | 33475 ft | 419 kts | 277° |
| 2026-05-05 16:25 | 69.16676 | 90.34417 | 33511 ft | 421 kts | 276° |